Time;durP1;ratioP1;P1;durP2;ratioP2;P2;SDS_P1;SDS_P2;PMS_P1;PMS_P2;Temp;Humidity;BMP_temperature;BMP_pressure;BME280_temperature;BME280_humidity;BME280_pressure;Samples;Min_cycle;Max_cycle;Signal;HPM_P1;HPM_P2
2021/05/26 00:00:06;;;;;;;13.17;4.13;;;11.00;99.90;;;;;;6294252;22;20165;-87
2021/05/26 00:02:32;;;;;;;14.23;3.70;;;11.00;99.90;;;;;;6295450;22;20249;-76
2021/05/26 00:04:59;;;;;;;8.87;3.67;;;10.90;99.90;;;;;;6296548;22;20207;-75
2021/05/26 00:07:25;;;;;;;10.33;3.77;;;10.90;99.90;;;;;;6295559;22;20234;-79
2021/05/26 00:09:52;;;;;;;7.50;2.87;;;10.90;99.90;;;;;;6296865;22;20226;-75
2021/05/26 00:12:18;;;;;;;8.90;3.20;;;10.80;99.90;;;;;;6295009;22;20176;-87
2021/05/26 00:14:45;;;;;;;11.53;3.43;;;10.90;99.90;;;;;;6296817;22;20448;-87
2021/05/26 00:17:11;;;;;;;8.10;3.70;;;10.80;99.90;;;;;;6297802;22;20182;-77
2021/05/26 00:19:39;;;;;;;13.27;5.00;;;10.80;99.90;;;;;;6298664;22;20168;-84
2021/05/26 00:22:06;;;;;;;13.57;4.47;;;10.80;99.90;;;;;;6298039;22;20198;-80
2021/05/26 00:24:32;;;;;;;11.80;4.00;;;10.80;99.90;;;;;;6295947;22;20208;-77
2021/05/26 00:26:58;;;;;;;13.23;4.33;;;10.80;99.90;;;;;;6296862;22;20229;-84
2021/05/26 00:29:25;;;;;;;13.40;5.33;;;10.70;99.90;;;;;;6295936;22;20168;-75
2021/05/26 00:31:51;;;;;;;17.13;5.70;;;10.70;99.90;;;;;;6295057;22;20171;-75
2021/05/26 00:34:18;;;;;;;11.93;4.93;;;10.70;99.90;;;;;;6297609;22;20175;-75
2021/05/26 00:36:44;;;;;;;12.80;5.03;;;10.70;99.90;;;;;;6298815;22;20564;-87
2021/05/26 00:39:11;;;;;;;11.53;4.17;;;10.70;99.90;;;;;;6297537;22;20171;-86
2021/05/26 00:41:37;;;;;;;9.37;3.57;;;10.70;99.90;;;;;;6299170;22;20198;-75
2021/05/26 00:44:04;;;;;;;11.83;3.67;;;10.70;99.90;;;;;;6299761;22;20450;-81
2021/05/26 00:46:30;;;;;;;10.20;3.70;;;10.70;99.90;;;;;;6299768;22;20185;-78
2021/05/26 00:48:56;;;;;;;8.60;3.30;;;10.60;99.90;;;;;;6299802;22;20486;-80
2021/05/26 00:51:23;;;;;;;11.87;3.90;;;10.60;99.90;;;;;;6298957;22;20470;-86
2021/05/26 00:53:49;;;;;;;9.17;3.43;;;10.70;99.90;;;;;;6299461;22;20233;-79
2021/05/26 00:56:16;;;;;;;8.43;3.50;;;10.60;99.90;;;;;;6298901;22;20176;-86
2021/05/26 00:58:42;;;;;;;9.27;4.40;;;10.60;99.90;;;;;;6297823;22;20179;-87
2021/05/26 01:01:09;;;;;;;11.00;4.87;;;10.60;99.90;;;;;;6303128;22;20234;-85
2021/05/26 01:03:35;;;;;;;9.53;4.57;;;10.60;99.90;;;;;;6303586;22;20179;-87
2021/05/26 01:06:02;;;;;;;9.07;3.80;;;10.60;99.90;;;;;;6303727;22;20201;-87
2021/05/26 01:08:28;;;;;;;9.27;3.70;;;10.70;99.90;;;;;;6303782;22;20172;-86
2021/05/26 01:10:54;;;;;;;6.20;3.30;;;10.60;99.90;;;;;;6304126;22;20179;-87
2021/05/26 01:13:24;;;;;;;8.43;3.50;;;10.60;99.90;;;;;;6303917;22;20168;-88
2021/05/26 01:15:50;;;;;;;8.10;3.63;;;10.70;99.90;;;;;;6303947;22;20176;-86
2021/05/26 01:18:21;;;;;;;6.93;3.90;;;10.70;99.90;;;;;;6303955;22;20201;-87
2021/05/26 01:20:48;;;;;;;15.00;6.10;;;10.70;99.90;;;;;;6303394;22;20176;-87
2021/05/26 01:23:17;;;;;;;12.10;4.27;;;10.70;99.90;;;;;;6303360;22;20180;-87
2021/05/26 01:25:45;;;;;;;11.03;4.13;;;10.80;99.90;;;;;;6302159;22;20584;-87
2021/05/26 01:28:11;;;;;;;9.53;3.90;;;10.80;99.90;;;;;;6300626;22;20195;-87
2021/05/26 01:30:38;;;;;;;9.50;3.97;;;10.80;99.90;;;;;;6300797;22;20176;-84
2021/05/26 01:33:05;;;;;;;11.37;3.80;;;10.80;99.90;;;;;;6300514;22;20191;-81
2021/05/26 01:35:31;;;;;;;7.97;3.87;;;10.80;99.90;;;;;;6300306;22;20176;-87
2021/05/26 01:37:57;;;;;;;8.40;4.30;;;10.80;99.90;;;;;;6301079;22;20737;-83
2021/05/26 01:40:24;;;;;;;9.40;3.80;;;10.80;99.90;;;;;;6300314;22;20183;-80
2021/05/26 01:42:50;;;;;;;11.80;4.63;;;10.80;99.90;;;;;;6300938;22;20195;-83
2021/05/26 01:45:18;;;;;;;13.20;5.40;;;10.90;99.90;;;;;;6302309;22;20619;-74
2021/05/26 01:47:48;;;;;;;19.80;7.93;;;10.90;99.90;;;;;;6300596;22;20245;-86
2021/05/26 01:50:23;;;;;;;28.77;9.70;;;11.00;99.90;;;;;;6301374;22;20179;-84
2021/05/26 01:52:52;;;;;;;13.97;5.97;;;11.10;99.90;;;;;;6301759;22;20199;-81
2021/05/26 01:55:19;;;;;;;14.70;5.50;;;11.20;99.90;;;;;;6300673;22;20164;-75
2021/05/26 01:57:47;;;;;;;13.77;5.90;;;11.10;99.90;;;;;;6301395;22;20164;-82
2021/05/26 02:00:15;;;;;;;13.13;4.50;;;11.10;99.90;;;;;;6302747;22;20172;-87
2021/05/26 02:02:42;;;;;;;8.10;3.43;;;11.10;99.90;;;;;;6301753;22;20191;-87
2021/05/26 02:05:10;;;;;;;12.37;3.40;;;11.10;99.90;;;;;;6301669;22;20172;-80
2021/05/26 02:07:37;;;;;;;11.47;3.47;;;11.00;99.90;;;;;;6303172;22;20619;-86
2021/05/26 02:10:04;;;;;;;6.50;3.03;;;11.00;99.90;;;;;;6302410;22;20563;-87
2021/05/26 02:12:33;;;;;;;4.90;2.60;;;11.10;99.90;;;;;;6301515;22;20180;-86
2021/05/26 02:15:01;;;;;;;8.23;3.27;;;11.00;99.90;;;;;;6301804;22;20210;-85
2021/05/26 02:17:28;;;;;;;7.47;3.50;;;11.00;99.90;;;;;;6301915;22;20195;-87
2021/05/26 02:19:54;;;;;;;8.27;3.67;;;11.10;99.90;;;;;;6299294;22;20164;-85
2021/05/26 02:22:20;;;;;;;6.17;3.00;;;11.00;99.90;;;;;;6299712;22;20196;-87
2021/05/26 02:24:47;;;;;;;5.70;3.03;;;11.00;99.90;;;;;;6301198;22;20167;-86
2021/05/26 02:27:14;;;;;;;7.23;3.20;;;11.00;99.90;;;;;;6301051;22;20172;-80
2021/05/26 02:29:40;;;;;;;12.00;3.77;;;11.00;99.90;;;;;;6301482;22;20187;-84
2021/05/26 02:32:08;;;;;;;9.83;3.60;;;11.00;99.90;;;;;;6301893;22;20187;-82
2021/05/26 02:34:35;;;;;;;8.43;3.80;;;11.00;99.90;;;;;;6302564;22;20185;-76
2021/05/26 02:37:01;;;;;;;13.13;4.20;;;11.00;99.90;;;;;;6300110;22;20164;-82
2021/05/26 02:39:28;;;;;;;13.27;4.93;;;10.90;99.90;;;;;;6301217;22;20176;-86
2021/05/26 02:41:54;;;;;;;8.97;4.10;;;10.90;99.90;;;;;;6300562;22;20252;-86
2021/05/26 02:44:21;;;;;;;9.77;4.70;;;10.90;99.90;;;;;;6300086;22;20183;-87
2021/05/26 02:46:47;;;;;;;11.83;4.63;;;10.90;99.90;;;;;;6299592;22;20172;-76
2021/05/26 02:49:15;;;;;;;7.40;3.93;;;10.90;99.90;;;;;;6299429;22;20183;-80
2021/05/26 02:51:41;;;;;;;10.93;4.43;;;10.90;99.90;;;;;;6302379;22;20196;-87
2021/05/26 02:54:08;;;;;;;8.07;3.40;;;10.90;99.90;;;;;;6298649;22;20176;-84
2021/05/26 02:56:35;;;;;;;4.93;3.27;;;10.90;99.90;;;;;;6298680;22;20172;-85
2021/05/26 02:59:03;;;;;;;7.90;3.30;;;10.90;99.90;;;;;;6299922;22;20176;-85
2021/05/26 03:01:29;;;;;;;8.93;3.30;;;10.90;99.90;;;;;;6300071;22;20196;-83
2021/05/26 03:03:56;;;;;;;4.90;2.43;;;10.90;99.90;;;;;;6301020;22;20912;-87
2021/05/26 03:06:23;;;;;;;6.23;2.30;;;11.00;99.90;;;;;;6299552;22;20639;-75
2021/05/26 03:08:49;;;;;;;4.17;2.30;;;11.00;99.90;;;;;;6301868;22;20257;-86
2021/05/26 03:11:16;;;;;;;6.33;2.20;;;11.10;99.90;;;;;;6301209;22;20180;-87
2021/05/26 03:13:43;;;;;;;6.87;2.70;;;11.10;99.90;;;;;;6299763;22;20167;-87
2021/05/26 03:16:10;;;;;;;6.97;2.77;;;11.10;99.90;;;;;;6298611;22;20644;-87
2021/05/26 03:18:37;;;;;;;9.90;3.13;;;11.10;99.90;;;;;;6297759;22;20588;-85
2021/05/26 03:21:04;;;;;;;5.97;3.43;;;11.10;99.90;;;;;;6297708;22;20168;-85
2021/05/26 03:23:31;;;;;;;6.30;3.13;;;11.10;99.90;;;;;;6298937;22;20198;-79
2021/05/26 03:25:58;;;;;;;7.30;2.40;;;11.10;99.90;;;;;;6300347;22;20179;-87
2021/05/26 03:28:24;;;;;;;3.90;1.93;;;11.10;99.90;;;;;;6299510;22;20454;-75
2021/05/26 03:30:50;;;;;;;2.80;1.70;;;11.10;99.90;;;;;;6300943;22;20233;-85
2021/05/26 03:33:19;;;;;;;5.40;2.40;;;11.10;99.90;;;;;;6301052;22;20273;-84
2021/05/26 03:35:46;;;;;;;4.73;1.90;;;11.10;99.90;;;;;;6297929;22;20169;-81
2021/05/26 03:38:12;;;;;;;4.50;2.40;;;11.10;99.90;;;;;;6296572;22;20229;-86
2021/05/26 03:40:40;;;;;;;9.80;2.87;;;11.10;99.90;;;;;;6296005;22;20176;-77
2021/05/26 03:43:06;;;;;;;6.17;2.73;;;11.10;99.90;;;;;;6294948;22;20206;-75
2021/05/26 03:45:33;;;;;;;7.67;2.77;;;11.10;99.90;;;;;;6294682;22;20172;-74
2021/05/26 03:48:00;;;;;;;6.37;2.53;;;11.20;99.90;;;;;;6295340;22;20233;-84
2021/05/26 03:50:28;;;;;;;6.07;2.73;;;11.20;99.90;;;;;;6295400;22;20311;-77
2021/05/26 03:52:55;;;;;;;4.50;2.80;;;11.20;99.90;;;;;;6295234;22;20199;-77
2021/05/26 03:55:23;;;;;;;4.90;2.20;;;11.20;99.90;;;;;;6294958;22;20603;-75
2021/05/26 03:57:51;;;;;;;7.13;3.10;;;11.20;99.90;;;;;;6295849;22;20172;-77
2021/05/26 04:00:20;;;;;;;4.63;2.70;;;11.20;99.90;;;;;;6296227;22;20168;-76
2021/05/26 04:02:47;;;;;;;8.90;3.17;;;11.30;99.90;;;;;;6295713;22;20557;-80
2021/05/26 04:05:14;;;;;;;10.63;3.23;;;11.30;99.90;;;;;;6296054;22;20175;-77
2021/05/26 04:07:40;;;;;;;10.47;3.87;;;11.30;99.90;;;;;;6295147;22;20176;-87
2021/05/26 04:10:08;;;;;;;9.40;3.73;;;11.30;99.90;;;;;;6294402;22;20445;-74
2021/05/26 04:12:34;;;;;;;8.60;3.60;;;11.40;99.90;;;;;;6295974;22;20168;-75
2021/05/26 04:15:01;;;;;;;10.13;3.60;;;11.40;99.90;;;;;;6296547;22;20435;-75
2021/05/26 04:17:27;;;;;;;17.23;5.73;;;11.40;99.90;;;;;;6296213;22;20175;-77
2021/05/26 04:19:54;;;;;;;11.07;5.03;;;11.40;99.90;;;;;;6295881;22;20255;-84
2021/05/26 04:22:20;;;;;;;12.13;4.07;;;11.50;99.90;;;;;;6296558;22;20196;-86
2021/05/26 04:24:47;;;;;;;11.03;4.70;;;11.50;99.90;;;;;;6296382;22;20168;-87
2021/05/26 04:27:14;;;;;;;15.50;6.47;;;11.50;99.90;;;;;;6296255;22;20431;-75
2021/05/26 04:29:40;;;;;;;18.60;6.93;;;11.50;99.90;;;;;;6296592;22;20188;-74
2021/05/26 04:32:07;;;;;;;11.70;6.60;;;11.50;99.90;;;;;;6296848;22;20184;-76
2021/05/26 04:34:34;;;;;;;15.50;7.17;;;11.50;99.90;;;;;;6297503;22;20612;-81
2021/05/26 04:37:00;;;;;;;19.77;7.40;;;11.60;99.90;;;;;;6297080;22;20194;-85
2021/05/26 04:39:26;;;;;;;20.77;8.97;;;11.60;99.90;;;;;;6296747;22;20175;-84
2021/05/26 04:41:53;;;;;;;17.80;6.77;;;11.70;99.90;;;;;;6295225;22;20192;-87
2021/05/26 04:44:19;;;;;;;9.87;5.30;;;11.70;99.90;;;;;;6295551;22;20164;-76
2021/05/26 04:46:45;;;;;;;11.93;4.80;;;11.80;99.90;;;;;;6296319;22;20165;-77
2021/05/26 04:49:13;;;;;;;10.77;4.03;;;11.80;99.90;;;;;;6296764;22;20172;-79
2021/05/26 04:51:39;;;;;;;8.43;3.57;;;11.80;99.90;;;;;;6295357;22;20164;-75
2021/05/26 04:54:06;;;;;;;9.07;3.37;;;11.90;99.90;;;;;;6296606;22;20164;-81
2021/05/26 04:56:32;;;;;;;5.13;3.00;;;11.90;99.90;;;;;;6296091;22;20576;-84
2021/05/26 04:58:58;;;;;;;4.70;2.80;;;11.90;99.90;;;;;;6295362;22;20176;-77
2021/05/26 05:01:25;;;;;;;7.33;3.40;;;12.00;99.90;;;;;;6297486;22;20200;-76
2021/05/26 05:03:51;;;;;;;7.37;3.53;;;12.00;99.90;;;;;;6299022;22;20176;-77
2021/05/26 05:06:20;;;;;;;6.73;3.90;;;12.00;99.90;;;;;;6298212;22;20537;-86
2021/05/26 05:08:47;;;;;;;7.80;3.80;;;12.00;99.90;;;;;;6297339;22;20183;-81
2021/05/26 05:11:13;;;;;;;7.77;4.53;;;12.00;99.90;;;;;;6297971;22;20211;-87
2021/05/26 05:13:39;;;;;;;7.20;3.70;;;12.00;99.90;;;;;;6298188;22;20579;-88
2021/05/26 05:16:05;;;;;;;6.97;4.10;;;12.10;99.90;;;;;;6297982;22;20172;-87
2021/05/26 05:18:32;;;;;;;13.80;4.00;;;12.10;99.90;;;;;;6298464;22;20176;-85
2021/05/26 05:20:58;;;;;;;9.97;4.00;;;12.10;99.90;;;;;;6298166;22;20176;-78
2021/05/26 05:23:25;;;;;;;8.97;3.90;;;12.20;99.90;;;;;;6300190;22;20249;-81
2021/05/26 05:25:51;;;;;;;6.37;3.07;;;12.50;99.90;;;;;;6299715;22;20179;-79
2021/05/26 05:28:18;;;;;;;5.10;3.20;;;12.70;99.90;;;;;;6301709;22;20172;-84
2021/05/26 05:30:44;;;;;;;9.27;3.10;;;12.80;99.90;;;;;;6300439;22;20242;-85
2021/05/26 05:33:10;;;;;;;9.50;3.77;;;13.00;99.90;;;;;;6298569;22;20196;-79
2021/05/26 05:35:36;;;;;;;8.07;3.43;;;13.30;99.90;;;;;;6296459;22;20548;-76
2021/05/26 05:38:02;;;;;;;8.60;2.30;;;13.50;99.90;;;;;;6297349;22;20172;-79
2021/05/26 05:40:30;;;;;;;5.37;2.20;;;13.60;99.90;;;;;;6297504;22;20172;-77
2021/05/26 05:42:56;;;;;;;7.33;2.60;;;13.70;99.90;;;;;;6295854;22;20199;-78
2021/05/26 05:45:22;;;;;;;6.23;1.97;;;13.80;99.90;;;;;;6295645;22;20595;-76
2021/05/26 05:47:49;;;;;;;3.50;1.80;;;13.90;99.90;;;;;;6296070;22;20172;-81
2021/05/26 05:50:16;;;;;;;6.47;2.20;;;14.10;99.90;;;;;;6297168;22;20172;-76
2021/05/26 05:52:43;;;;;;;6.77;2.53;;;14.10;99.90;;;;;;6297417;22;20231;-83
2021/05/26 05:55:12;;;;;;;2.60;1.73;;;14.10;99.90;;;;;;6296826;22;20283;-79
2021/05/26 05:57:40;;;;;;;2.20;1.40;;;14.30;99.90;;;;;;6296052;22;20556;-85
2021/05/26 06:00:09;;;;;;;4.67;1.70;;;14.40;99.90;;;;;;6296929;22;20176;-79
2021/05/26 06:02:35;;;;;;;3.30;1.50;;;14.30;99.90;;;;;;6295891;22;20203;-76
2021/05/26 06:05:01;;;;;;;3.70;1.70;;;14.20;99.90;;;;;;6297733;22;20176;-80
2021/05/26 06:07:27;;;;;;;5.07;1.40;;;14.10;99.90;;;;;;6296209;22;20530;-77
2021/05/26 06:09:54;;;;;;;4.10;0.90;;;13.90;99.90;;;;;;6296857;22;20171;-76
2021/05/26 06:12:20;;;;;;;3.27;1.00;;;13.80;99.90;;;;;;6297177;22;20173;-87
2021/05/26 06:14:47;;;;;;;1.00;0.80;;;13.50;99.90;;;;;;6297735;22;20581;-75
2021/05/26 06:17:14;;;;;;;3.23;1.30;;;13.40;99.90;;;;;;6297797;22;20176;-83
2021/05/26 06:19:40;;;;;;;3.47;1.30;;;13.20;99.90;;;;;;6296875;22;20172;-82
2021/05/26 06:22:06;;;;;;;5.03;1.13;;;13.10;99.90;;;;;;6298331;22;20846;-80
2021/05/26 06:24:33;;;;;;;2.87;0.90;;;13.00;99.90;;;;;;6296898;22;20176;-81
2021/05/26 06:27:00;;;;;;;3.27;1.20;;;12.90;99.90;;;;;;6297590;22;20172;-82
2021/05/26 06:30:09;;;;;;;2.10;1.10;;;12.80;99.90;;;;;;6292403;22;20899;-76
2021/05/26 06:32:36;;;;;;;1.73;0.97;;;12.80;99.90;;;;;;6297787;22;20237;-77
2021/05/26 06:35:02;;;;;;;2.10;0.87;;;12.80;99.90;;;;;;6299221;22;20168;-81
2021/05/26 06:37:29;;;;;;;3.30;1.30;;;12.70;99.90;;;;;;6297930;22;20172;-77
2021/05/26 06:39:55;;;;;;;2.67;1.33;;;12.80;99.90;;;;;;6298135;22;20557;-80
2021/05/26 06:42:21;;;;;;;4.37;1.77;;;12.80;99.90;;;;;;6298312;22;20202;-76
2021/05/26 06:44:48;;;;;;;3.33;1.30;;;12.80;99.90;;;;;;6297766;22;20171;-85
2021/05/26 06:47:18;;;;;;;4.57;1.40;;;12.90;99.90;;;;;;6241427;22;20772;-78
2021/05/26 06:49:45;;;;;;;2.87;1.10;;;12.90;99.90;;;;;;6297359;22;20834;-76
2021/05/26 06:52:12;;;;;;;1.80;1.20;;;12.90;99.90;;;;;;6297766;22;20200;-80
2021/05/26 06:54:38;;;;;;;3.23;1.50;;;12.90;99.90;;;;;;6297795;22;20620;-78
2021/05/26 06:57:05;;;;;;;3.60;1.53;;;12.90;99.90;;;;;;6298087;22;20222;-79
2021/05/26 06:59:31;;;;;;;2.63;1.37;;;12.90;99.90;;;;;;6298237;22;20241;-85
2021/05/26 07:01:57;;;;;;;7.60;1.87;;;13.00;99.90;;;;;;6298037;22;20195;-83
2021/05/26 07:04:24;;;;;;;3.40;1.30;;;13.10;99.90;;;;;;6297810;22;20217;-86
2021/05/26 07:06:51;;;;;;;5.40;1.50;;;13.20;99.90;;;;;;6297714;22;20180;-82
2021/05/26 07:09:17;;;;;;;4.57;2.20;;;13.20;99.90;;;;;;6298313;22;20185;-78
2021/05/26 07:11:44;;;;;;;6.20;1.70;;;13.30;99.90;;;;;;6298400;22;20174;-77
2021/05/26 07:14:10;;;;;;;5.60;1.90;;;13.40;99.90;;;;;;6297506;22;20543;-78
2021/05/26 07:16:37;;;;;;;6.43;1.40;;;13.50;99.90;;;;;;6298010;22;20237;-86
2021/05/26 07:19:04;;;;;;;3.00;1.37;;;13.50;99.90;;;;;;6297277;22;20172;-79
2021/05/26 07:21:30;;;;;;;3.57;1.43;;;13.50;99.90;;;;;;6298225;22;20172;-84
2021/05/26 07:23:57;;;;;;;2.83;1.40;;;13.40;99.90;;;;;;6296116;22;20168;-80
2021/05/26 07:26:23;;;;;;;1.53;1.10;;;13.50;99.90;;;;;;6295972;22;20179;-77
2021/05/26 07:28:50;;;;;;;1.47;1.20;;;13.40;99.90;;;;;;6296780;22;20176;-77
2021/05/26 07:31:17;;;;;;;4.10;1.83;;;13.50;99.90;;;;;;6295798;22;20167;-79
2021/05/26 07:33:43;;;;;;;2.67;1.20;;;13.50;99.90;;;;;;6296050;22;20545;-87
2021/05/26 07:36:10;;;;;;;3.73;1.77;;;13.50;99.90;;;;;;6296553;22;20425;-82
2021/05/26 07:38:36;;;;;;;3.23;1.20;;;13.50;99.90;;;;;;6297141;22;20172;-83
2021/05/26 07:41:04;;;;;;;2.77;1.10;;;13.70;99.90;;;;;;6295382;22;20176;-77
2021/05/26 07:43:32;;;;;;;2.80;1.20;;;13.90;99.90;;;;;;6297345;22;20192;-76
2021/05/26 07:46:00;;;;;;;2.90;1.30;;;13.90;99.90;;;;;;6297646;22;20218;-84
2021/05/26 07:48:27;;;;;;;3.97;1.20;;;13.80;99.90;;;;;;6297060;22;20179;-78
2021/05/26 07:50:53;;;;;;;4.43;0.90;;;13.70;99.90;;;;;;6299819;22;20184;-79
2021/05/26 07:53:19;;;;;;;1.83;1.00;;;13.90;99.90;;;;;;6299211;22;20277;-74
2021/05/26 07:55:46;;;;;;;1.40;0.60;;;14.10;99.90;;;;;;6296468;22;20209;-78
2021/05/26 07:58:13;;;;;;;1.97;0.77;;;14.30;99.90;;;;;;6299813;22;20183;-82
2021/05/26 08:00:39;;;;;;;0.83;0.63;;;14.60;99.90;;;;;;6299313;22;20176;-83
2021/05/26 08:03:06;;;;;;;2.83;0.87;;;15.10;99.90;;;;;;6296820;22;20199;-83
2021/05/26 08:05:32;;;;;;;6.17;0.90;;;15.40;99.90;;;;;;6296730;22;20175;-79
2021/05/26 08:07:59;;;;;;;1.30;0.73;;;15.40;99.90;;;;;;6298734;22;20176;-79
2021/05/26 08:10:25;;;;;;;2.40;0.70;;;15.20;99.90;;;;;;6298391;22;20175;-84
2021/05/26 08:12:51;;;;;;;1.83;0.70;;;15.10;99.90;;;;;;6298696;22;20179;-75
2021/05/26 08:15:19;;;;;;;1.87;0.70;;;15.20;99.90;;;;;;6298264;22;20194;-77
2021/05/26 08:17:45;;;;;;;2.23;0.50;;;15.20;99.90;;;;;;6296366;22;20175;-77
2021/05/26 08:20:13;;;;;;;0.70;0.50;;;15.50;99.90;;;;;;6296364;22;20179;-78
2021/05/26 08:22:39;;;;;;;3.13;0.80;;;15.80;99.90;;;;;;6296256;22;20192;-76
2021/05/26 08:25:07;;;;;;;1.50;0.57;;;15.90;99.90;;;;;;6297654;22;20179;-85
2021/05/26 08:27:33;;;;;;;0.70;0.50;;;16.00;99.90;;;;;;6298276;22;20852;-84
2021/05/26 08:30:01;;;;;;;1.00;0.70;;;15.90;99.90;;;;;;6297552;22;20496;-84
2021/05/26 08:32:28;;;;;;;1.87;0.60;;;15.90;99.90;;;;;;6299041;22;20195;-82
2021/05/26 08:34:55;;;;;;;1.20;0.50;;;15.80;99.90;;;;;;6297280;22;20168;-76
2021/05/26 08:37:21;;;;;;;1.05;0.50;;;15.90;99.90;;;;;;6296075;22;20176;-75
2021/05/26 08:39:48;;;;;;;1.83;0.60;;;15.80;99.90;;;;;;6297520;22;20183;-84
2021/05/26 08:42:17;;;;;;;1.67;0.60;;;15.60;99.90;;;;;;6297082;22;20257;-83
2021/05/26 08:44:43;;;;;;;1.40;0.60;;;15.40;99.90;;;;;;6295693;22;20172;-78
2021/05/26 08:47:15;;;;;;;1.97;0.80;;;15.20;99.90;;;;;;6296992;22;20489;-77
2021/05/26 08:49:45;;;;;;;2.47;0.50;;;15.10;99.90;;;;;;6297441;22;20164;-80
2021/05/26 08:52:12;;;;;;;3.43;0.70;;;15.00;99.90;;;;;;6297767;22;20200;-77
2021/05/26 08:54:39;;;;;;;0.83;0.50;;;15.00;99.90;;;;;;6295819;22;20194;-76
2021/05/26 08:57:05;;;;;;;2.70;1.00;;;15.00;99.90;;;;;;6297384;22;20179;-80
2021/05/26 08:59:32;;;;;;;2.77;0.60;;;15.30;99.90;;;;;;6298531;22;20168;-87
2021/05/26 09:01:58;;;;;;;1.80;0.70;;;15.60;99.90;;;;;;6298490;22;20199;-81
2021/05/26 09:04:27;;;;;;;2.10;0.70;;;15.70;99.90;;;;;;6298223;22;20172;-86
2021/05/26 09:07:10;;;;;;;3.30;0.70;;;15.90;99.90;;;;;;6297560;22;20882;-83
2021/05/26 09:09:48;;;;;;;3.27;0.67;;;16.10;99.90;;;;;;6299452;22;20164;-82
2021/05/26 09:12:23;;;;;;;3.20;0.60;;;16.40;99.90;;;;;;6297425;22;20425;-78
2021/05/26 09:14:49;;;;;;;1.57;0.70;;;16.50;99.90;;;;;;6298619;22;20168;-79
2021/05/26 09:17:16;;;;;;;1.80;0.70;;;16.60;99.90;;;;;;6298161;22;20249;-85
2021/05/26 09:19:43;;;;;;;0.90;0.50;;;16.80;99.90;;;;;;6299347;22;20183;-84
2021/05/26 09:22:11;;;;;;;2.23;0.80;;;16.70;99.90;;;;;;6296882;22;20667;-89
2021/05/26 09:24:38;;;;;;;2.07;0.80;;;16.70;99.90;;;;;;6298849;22;20176;-79
2021/05/26 09:27:06;;;;;;;3.43;0.70;;;16.60;99.90;;;;;;6296151;22;20183;-80
2021/05/26 09:29:34;;;;;;;4.77;1.30;;;16.70;99.90;;;;;;6296534;22;20172;-82
2021/05/26 09:32:15;;;;;;;2.73;0.90;;;16.80;99.90;;;;;;6295314;22;20250;-76
2021/05/26 09:34:42;;;;;;;3.17;0.90;;;16.50;99.90;;;;;;6295292;22;20175;-76
2021/05/26 09:37:14;;;;;;;1.97;0.90;;;16.50;99.90;;;;;;6295759;22;20176;-74
2021/05/26 09:39:51;;;;;;;4.13;1.10;;;16.40;99.90;;;;;;6295146;22;20225;-77
2021/05/26 09:42:36;;;;;;;2.40;1.10;;;16.40;99.90;;;;;;6294383;22;20250;-75
2021/05/26 09:45:12;;;;;;;2.77;1.10;;;16.60;99.90;;;;;;6295151;22;20168;-81
2021/05/26 09:47:40;;;;;;;1.20;0.80;;;16.90;99.90;;;;;;6294776;22;20278;-79
2021/05/26 09:50:23;;;;;;;4.40;1.20;;;16.90;99.90;;;;;;6293284;22;20176;-77
2021/05/26 09:53:16;;;;;;;2.07;1.00;;;16.60;99.90;;;;;;6294026;22;20203;-75
2021/05/26 09:55:43;;;;;;;4.27;1.23;;;16.60;99.90;;;;;;6265807;22;20675;-77
2021/05/26 09:58:11;;;;;;;5.63;1.47;;;16.80;99.90;;;;;;6295301;22;20435;-78
2021/05/26 10:00:39;;;;;;;2.53;1.07;;;17.20;99.90;;;;;;6296214;22;20176;-85
2021/05/26 10:03:06;;;;;;;3.23;1.27;;;17.50;99.90;;;;;;6294095;22;20192;-82
2021/05/26 10:05:34;;;;;;;2.05;0.90;;;17.30;99.90;;;;;;6295672;22;20172;-76
2021/05/26 10:08:01;;;;;;;6.67;1.57;;;17.00;99.90;;;;;;6294844;22;20183;-77
2021/05/26 10:10:30;;;;;;;5.83;1.87;;;16.50;99.90;;;;;;6294680;22;20221;-78
2021/05/26 10:12:59;;;;;;;3.50;1.20;;;16.30;99.90;;;;;;6296101;22;20168;-78
2021/05/26 10:15:27;;;;;;;8.73;1.50;;;16.10;99.90;;;;;;6294893;22;20179;-79
2021/05/26 10:17:56;;;;;;;7.13;1.63;;;15.90;99.90;;;;;;6295667;22;20195;-81
2021/05/26 10:20:24;;;;;;;4.77;2.03;;;15.80;99.90;;;;;;6294119;22;20226;-79
2021/05/26 10:22:52;;;;;;;6.30;1.73;;;15.60;99.90;;;;;;6294683;22;20850;-76
2021/05/26 10:25:19;;;;;;;7.17;2.10;;;15.20;99.90;;;;;;6295456;22;20183;-76
2021/05/26 10:27:48;;;;;;;7.93;3.00;;;14.90;99.90;;;;;;6294647;22;20848;-76
2021/05/26 10:30:16;;;;;;;4.33;1.80;;;14.80;99.90;;;;;;6295997;22;20565;-79
2021/05/26 10:32:59;;;;;;;6.57;2.17;;;14.80;99.90;;;;;;6295617;22;20184;-76
2021/05/26 10:35:26;;;;;;;4.80;2.20;;;14.90;99.90;;;;;;6295968;22;20246;-77
2021/05/26 10:37:59;;;;;;;4.90;1.70;;;15.00;99.90;;;;;;6294635;22;20172;-76
2021/05/26 10:40:43;;;;;;;2.90;1.80;;;15.00;99.90;;;;;;6296072;22;20175;-76
2021/05/26 10:43:36;;;;;;;4.33;1.50;;;15.20;99.90;;;;;;6294111;22;20685;-81
2021/05/26 10:46:04;;;;;;;5.53;1.67;;;15.50;99.90;;;;;;6294401;22;20171;-75
2021/05/26 10:48:57;;;;;;;5.87;1.83;;;15.80;99.90;;;;;;6294191;22;20179;-76
2021/05/26 10:52:05;;;;;;;4.03;1.50;;;15.90;99.90;;;;;;6279805;22;20600;-74
2021/05/26 10:54:59;;;;;;;4.30;2.33;;;16.00;99.90;;;;;;6294917;22;20599;-75
2021/05/26 10:57:30;;;;;;;5.13;2.10;;;16.20;99.90;;;;;;6294567;22;20429;-79
2021/05/26 11:00:24;;;;;;;7.07;2.17;;;16.30;99.90;;;;;;6294461;22;20646;-75
2021/05/26 11:03:28;;;;;;;5.10;2.00;;;16.30;99.90;;;;;;6294921;22;20188;-80
2021/05/26 11:05:56;;;;;;;6.07;2.20;;;16.30;99.90;;;;;;6295075;22;20820;-76
2021/05/26 11:08:31;;;;;;;6.00;2.10;;;16.60;99.90;;;;;;6294988;22;20168;-77
2021/05/26 11:10:57;;;;;;;7.93;2.43;;;16.80;99.90;;;;;;6294887;22;20707;-80
2021/05/26 11:13:23;;;;;;;11.47;2.73;;;16.50;99.90;;;;;;6295112;22;20570;-79
2021/05/26 11:15:57;;;;;;;4.50;1.70;;;16.40;99.90;;;;;;6295477;22;20441;-77
2021/05/26 11:18:30;;;;;;;5.27;1.60;;;16.30;99.90;;;;;;6295071;22;20218;-79
2021/05/26 11:20:56;;;;;;;4.00;1.87;;;16.30;99.90;;;;;;6296364;22;20226;-76
2021/05/26 11:23:23;;;;;;;4.03;1.50;;;16.20;99.90;;;;;;6295580;22;20226;-74
2021/05/26 11:25:50;;;;;;;3.53;1.83;;;16.40;99.90;;;;;;6293048;22;20175;-76
2021/05/26 11:28:26;;;;;;;2.87;1.60;;;16.50;99.90;;;;;;6295839;22;20433;-79
2021/05/26 11:31:00;;;;;;;6.77;1.67;;;16.50;99.90;;;;;;6294818;22;20164;-75
2021/05/26 11:33:26;;;;;;;9.10;2.00;;;16.40;99.90;;;;;;6294758;22;20259;-74
2021/05/26 11:35:54;;;;;;;3.87;1.90;;;16.00;99.90;;;;;;6293924;22;20175;-80
2021/05/26 11:38:25;;;;;;;5.53;1.53;;;16.00;99.90;;;;;;6294302;22;21011;-80
2021/05/26 11:40:52;;;;;;;3.43;1.50;;;16.20;99.90;;;;;;6293891;22;20440;-76
2021/05/26 11:43:22;;;;;;;4.40;2.13;;;16.20;99.90;;;;;;6294971;22;20229;-79
2021/05/26 11:46:01;;;;;;;4.47;1.80;;;16.00;99.90;;;;;;6293860;22;20226;-80
2021/05/26 11:48:28;;;;;;;2.90;1.47;;;16.00;99.90;;;;;;6293724;22;20168;-77
2021/05/26 11:50:54;;;;;;;4.57;1.80;;;16.00;99.90;;;;;;6294783;22;20172;-76
2021/05/26 11:53:21;;;;;;;5.60;2.10;;;16.00;99.90;;;;;;6294232;22;20204;-82
2021/05/26 11:55:51;;;;;;;3.13;1.40;;;16.10;99.90;;;;;;6295225;22;20176;-79
2021/05/26 11:58:37;;;;;;;4.57;1.30;;;16.50;99.90;;;;;;6296517;22;20175;-79
2021/05/26 12:01:06;;;;;;;4.67;1.60;;;16.90;99.90;;;;;;6297230;22;20160;-88
2021/05/26 12:03:33;;;;;;;2.23;1.50;;;17.10;99.90;;;;;;6299163;22;20733;-81
2021/05/26 12:06:01;;;;;;;4.70;1.73;;;17.30;99.90;;;;;;6297471;22;20172;-84
2021/05/26 12:08:28;;;;;;;4.83;1.40;;;17.40;99.90;;;;;;6298752;22;20172;-85
2021/05/26 12:10:57;;;;;;;4.30;1.33;;;17.50;99.90;;;;;;6299154;22;20695;-88
2021/05/26 12:13:25;;;;;;;4.53;1.53;;;17.50;99.90;;;;;;6299067;22;20533;-83
2021/05/26 12:15:52;;;;;;;2.50;1.27;;;17.50;99.90;;;;;;6297842;22;20187;-80
2021/05/26 12:18:19;;;;;;;2.30;1.20;;;17.40;99.90;;;;;;6298655;22;20186;-75
2021/05/26 12:20:50;;;;;;;3.20;1.60;;;17.40;99.90;;;;;;6298806;22;20229;-75
2021/05/26 12:23:31;;;;;;;4.23;1.20;;;17.50;99.90;;;;;;6297498;22;20184;-85
2021/05/26 12:25:57;;;;;;;5.17;1.43;;;17.20;99.90;;;;;;6297691;22;20170;-86
2021/05/26 12:28:24;;;;;;;4.75;1.42;;;17.10;99.90;;;;;;6300136;22;20176;-81
2021/05/26 12:30:51;;;;;;;4.72;1.60;;;17.10;99.90;;;;;;6295854;22;20309;-75
2021/05/26 12:33:20;;;;;;;5.07;1.40;;;16.90;99.90;;;;;;6299964;22;20283;-83
2021/05/26 12:36:04;;;;;;;2.80;1.63;;;16.80;99.90;;;;;;6299868;22;20520;-78
2021/05/26 12:38:35;;;;;;;4.10;1.55;;;16.50;99.90;;;;;;6298042;22;20217;-75
2021/05/26 12:41:27;;;;;;;5.22;1.60;;;16.50;99.90;;;;;;6296520;22;20168;-75
2021/05/26 12:43:55;;;;;;;5.57;1.57;;;16.60;99.90;;;;;;6297606;22;20198;-75
2021/05/26 12:46:42;;;;;;;4.78;1.42;;;16.70;99.90;;;;;;6299445;22;20176;-81
2021/05/26 12:49:38;;;;;;;3.83;1.63;;;16.60;99.90;;;;;;6299292;22;20533;-81
2021/05/26 12:52:07;;;;;;;3.67;1.73;;;16.40;99.90;;;;;;6297978;22;20230;-74